sensor_id;sensor_type;location;lat;lon;timestamp;pressure;altitude;pressure_sealevel;temperature;humidity
61119;BME280;51448;51.660;5.824;2023-08-06T00:00:41;100305.63;;;15.80;100.00
61119;BME280;51448;51.660;5.824;2023-08-06T00:03:09;100298.53;;;15.80;100.00
61119;BME280;51448;51.660;5.824;2023-08-06T00:05:37;100292.47;;;15.78;100.00
61119;BME280;51448;51.660;5.824;2023-08-06T00:08:04;100295.97;;;15.79;100.00
61119;BME280;51448;51.660;5.824;2023-08-06T00:10:32;100297.69;;;15.80;100.00
61119;BME280;51448;51.660;5.824;2023-08-06T00:12:59;100294.25;;;15.78;100.00
61119;BME280;51448;51.660;5.824;2023-08-06T00:15:27;100291.69;;;15.76;100.00
61119;BME280;51448;51.660;5.824;2023-08-06T00:17:55;100288.97;;;15.78;100.00
61119;BME280;51448;51.660;5.824;2023-08-06T00:20:22;100290.66;;;15.79;100.00
61119;BME280;51448;51.660;5.824;2023-08-06T00:22:50;100285.34;;;15.79;100.00
61119;BME280;51448;51.660;5.824;2023-08-06T00:25:17;100277.31;;;15.80;100.00
61119;BME280;51448;51.660;5.824;2023-08-06T00:27:45;100276.47;;;15.80;100.00
61119;BME280;51448;51.660;5.824;2023-08-06T00:30:12;100280.81;;;15.81;100.00
61119;BME280;51448;51.660;5.824;2023-08-06T00:32:40;100280.06;;;15.79;100.00
61119;BME280;51448;51.660;5.824;2023-08-06T00:35:08;100274.88;;;15.77;100.00
61119;BME280;51448;51.660;5.824;2023-08-06T00:37:35;100273.06;;;15.78;100.00
61119;BME280;51448;51.660;5.824;2023-08-06T00:40:03;100268.59;;;15.78;100.00
61119;BME280;51448;51.660;5.824;2023-08-06T00:42:31;100277.41;;;15.79;100.00
61119;BME280;51448;51.660;5.824;2023-08-06T00:44:59;100278.34;;;15.78;100.00
61119;BME280;51448;51.660;5.824;2023-08-06T00:47:26;100272.09;;;15.79;100.00
61119;BME280;51448;51.660;5.824;2023-08-06T00:49:54;100269.44;;;15.79;100.00
61119;BME280;51448;51.660;5.824;2023-08-06T00:52:22;100273.91;;;15.78;100.00
61119;BME280;51448;51.660;5.824;2023-08-06T00:54:50;100277.41;;;15.79;100.00
61119;BME280;51448;51.660;5.824;2023-08-06T00:57:18;100265.88;;;15.80;100.00
61119;BME280;51448;51.660;5.824;2023-08-06T00:59:47;100275.63;;;15.79;100.00
61119;BME280;51448;51.660;5.824;2023-08-06T01:02:15;100277.31;;;15.80;100.00
61119;BME280;51448;51.660;5.824;2023-08-06T01:04:42;100273.81;;;15.80;100.00
61119;BME280;51448;51.660;5.824;2023-08-06T01:07:37;100277.31;;;15.80;100.00
61119;BME280;51448;51.660;5.824;2023-08-06T01:13:18;100272.09;;;15.79;100.00
61119;BME280;51448;51.660;5.824;2023-08-06T01:16:11;100265.94;;;15.78;100.00
61119;BME280;51448;51.660;5.824;2023-08-06T01:18:40;100269.44;;;15.79;100.00
61119;BME280;51448;51.660;5.824;2023-08-06T01:21:09;100274.75;;;15.79;100.00
61119;BME280;51448;51.660;5.824;2023-08-06T01:23:36;100256.94;;;15.81;100.00
61119;BME280;51448;51.660;5.824;2023-08-06T01:26:23;100258.69;;;15.82;100.00
61119;BME280;51448;51.660;5.824;2023-08-06T01:29:25;100254.31;;;15.81;100.00
61119;BME280;51448;51.660;5.824;2023-08-06T01:31:58;100258.69;;;15.82;100.00
61119;BME280;51448;51.660;5.824;2023-08-06T01:34:29;100254.22;;;15.82;100.00
61119;BME280;51448;51.660;5.824;2023-08-06T01:37:00;100262.09;;;15.84;100.00
61119;BME280;51448;51.660;5.824;2023-08-06T01:39:30;100262.00;;;15.85;100.00
61119;BME280;51448;51.660;5.824;2023-08-06T01:42:03;100268.91;;;15.88;100.00
61119;BME280;51448;51.660;5.824;2023-08-06T01:44:31;100259.16;;;15.88;100.00
61119;BME280;51448;51.660;5.824;2023-08-06T01:47:00;100260.97;;;15.88;100.00
61119;BME280;51448;51.660;5.824;2023-08-06T01:49:27;100264.38;;;15.90;100.00
61119;BME280;51448;51.660;5.824;2023-08-06T01:51:55;100260.00;;;15.89;100.00
61119;BME280;51448;51.660;5.824;2023-08-06T01:54:23;100249.50;;;15.87;100.00
61119;BME280;51448;51.660;5.824;2023-08-06T01:56:50;100256.59;;;15.87;100.00
61119;BME280;51448;51.660;5.824;2023-08-06T01:59:18;100254.91;;;15.86;100.00
61119;BME280;51448;51.660;5.824;2023-08-06T02:01:46;100254.81;;;15.87;100.00
61119;BME280;51448;51.660;5.824;2023-08-06T02:04:14;100259.25;;;15.87;100.00
61119;BME280;51448;51.660;5.824;2023-08-06T02:06:43;100265.50;;;15.86;100.00
61119;BME280;51448;51.660;5.824;2023-08-06T02:09:11;100252.41;;;15.83;100.00
61119;BME280;51448;51.660;5.824;2023-08-06T02:11:38;100254.31;;;15.81;100.00
61119;BME280;51448;51.660;5.824;2023-08-06T02:14:06;100253.53;;;15.79;100.00
61119;BME280;51448;51.660;5.824;2023-08-06T02:16:33;100262.44;;;15.78;100.00
61119;BME280;51448;51.660;5.824;2023-08-06T02:19:02;100263.28;;;15.78;100.00
61119;BME280;51448;51.660;5.824;2023-08-06T02:21:31;100268.50;;;15.80;100.00
61119;BME280;51448;51.660;5.824;2023-08-06T02:23:58;100258.84;;;15.79;100.00
61119;BME280;51448;51.660;5.824;2023-08-06T02:26:26;100252.00;;;15.75;100.00
61119;BME280;51448;51.660;5.824;2023-08-06T02:28:55;100252.16;;;15.72;100.00
61119;BME280;51448;51.660;5.824;2023-08-06T02:31:23;100249.53;;;15.72;100.00
61119;BME280;51448;51.660;5.824;2023-08-06T02:33:50;100252.16;;;15.72;100.00
61119;BME280;51448;51.660;5.824;2023-08-06T02:36:19;100247.66;;;15.74;100.00
61119;BME280;51448;51.660;5.824;2023-08-06T02:38:46;100237.06;;;15.74;100.00
61119;BME280;51448;51.660;5.824;2023-08-06T02:41:14;100237.81;;;15.76;100.00
61119;BME280;51448;51.660;5.824;2023-08-06T02:43:41;100237.81;;;15.76;100.00
61119;BME280;51448;51.660;5.824;2023-08-06T02:46:09;100241.53;;;15.73;100.00
61119;BME280;51448;51.660;5.824;2023-08-06T02:48:37;100237.19;;;15.70;100.00
61119;BME280;51448;51.660;5.824;2023-08-06T02:51:04;100240.88;;;15.68;100.00
61119;BME280;51448;51.660;5.824;2023-08-06T02:53:33;100229.44;;;15.67;100.00
61119;BME280;51448;51.660;5.824;2023-08-06T02:56:05;100232.94;;;15.68;100.00
61119;BME280;51448;51.660;5.824;2023-08-06T02:58:45;100237.56;;;15.64;100.00
61119;BME280;51448;51.660;5.824;2023-08-06T03:01:23;100235.03;;;15.63;100.00
61119;BME280;51448;51.660;5.824;2023-08-06T03:03:58;100232.38;;;15.63;100.00
61119;BME280;51448;51.660;5.824;2023-08-06T03:06:32;100233.22;;;15.63;100.00
61119;BME280;51448;51.660;5.824;2023-08-06T03:09:01;100236.63;;;15.65;100.00
61119;BME280;51448;51.660;5.824;2023-08-06T03:11:29;100224.22;;;15.66;100.00
61119;BME280;51448;51.660;5.824;2023-08-06T03:14:03;100217.13;;;15.66;100.00
61119;BME280;51448;51.660;5.824;2023-08-06T03:16:30;100217.03;;;15.68;100.00
61119;BME280;51448;51.660;5.824;2023-08-06T03:19:00;100219.59;;;15.69;100.00
61119;BME280;51448;51.660;5.824;2023-08-06T03:21:28;100227.47;;;15.71;100.00
61119;BME280;51448;51.660;5.824;2023-08-06T03:23:57;100221.28;;;15.70;100.00
61119;BME280;51448;51.660;5.824;2023-08-06T03:26:27;100218.63;;;15.70;100.00
61119;BME280;51448;51.660;5.824;2023-08-06T03:28:56;100216.78;;;15.73;100.00
61119;BME280;51448;51.660;5.824;2023-08-06T03:31:24;100218.50;;;15.74;100.00
61119;BME280;51448;51.660;5.824;2023-08-06T03:33:52;100217.53;;;15.75;100.00
61119;BME280;51448;51.660;5.824;2023-08-06T03:36:24;100216.78;;;15.73;100.00
61119;BME280;51448;51.660;5.824;2023-08-06T03:38:54;100215.00;;;15.73;100.00
61119;BME280;51448;51.660;5.824;2023-08-06T03:41:21;100221.16;;;15.74;100.00
61119;BME280;51448;51.660;5.824;2023-08-06T03:43:50;100222.16;;;15.71;100.00
61119;BME280;51448;51.660;5.824;2023-08-06T03:46:26;100220.72;;;15.65;100.00
61119;BME280;51448;51.660;5.824;2023-08-06T03:48:54;100226.19;;;15.62;100.00
61119;BME280;51448;51.660;5.824;2023-08-06T03:51:21;100222.69;;;15.62;100.00
61119;BME280;51448;51.660;5.824;2023-08-06T03:53:49;100220.13;;;15.60;100.00
61119;BME280;51448;51.660;5.824;2023-08-06T03:56:17;100223.72;;;15.59;100.00
61119;BME280;51448;51.660;5.824;2023-08-06T03:58:45;100222.97;;;15.57;100.00
61119;BME280;51448;51.660;5.824;2023-08-06T04:01:12;100219.56;;;15.55;100.00
61119;BME280;51448;51.660;5.824;2023-08-06T04:03:43;100226.75;;;15.53;100.00
61119;BME280;51448;51.660;5.824;2023-08-06T04:06:12;100223.13;;;15.54;100.00
61119;BME280;51448;51.660;5.824;2023-08-06T04:08:39;100223.34;;;15.51;100.00
61119;BME280;51448;51.660;5.824;2023-08-06T04:11:07;100227.09;;;15.47;100.00
61119;BME280;51448;51.660;5.824;2023-08-06T04:13:36;100226.25;;;15.46;100.00
61119;BME280;51448;51.660;5.824;2023-08-06T04:16:04;100230.69;;;15.46;100.00
61119;BME280;51448;51.660;5.824;2023-08-06T04:18:33;100244.88;;;15.45;100.00
61119;BME280;51448;51.660;5.824;2023-08-06T04:21:01;100229.91;;;15.44;100.00
61119;BME280;51448;51.660;5.824;2023-08-06T04:23:29;100235.31;;;15.42;100.00
61119;BME280;51448;51.660;5.824;2023-08-06T04:26:02;100239.75;;;15.42;100.00
61119;BME280;51448;51.660;5.824;2023-08-06T04:28:40;100252.06;;;15.43;100.00
61119;BME280;51448;51.660;5.824;2023-08-06T04:31:09;100244.88;;;15.45;100.00
61119;BME280;51448;51.660;5.824;2023-08-06T04:33:39;100244.03;;;15.44;100.00
61119;BME280;51448;51.660;5.824;2023-08-06T04:36:09;100242.16;;;15.46;100.00
61119;BME280;51448;51.660;5.824;2023-08-06T04:38:37;100244.69;;;15.48;100.00
61119;BME280;51448;51.660;5.824;2023-08-06T04:41:06;100234.97;;;15.48;100.00
61119;BME280;51448;51.660;5.824;2023-08-06T04:43:35;100237.50;;;15.50;100.00
61119;BME280;51448;51.660;5.824;2023-08-06T04:46:02;100247.25;;;15.49;100.00
61119;BME280;51448;51.660;5.824;2023-08-06T04:48:30;100246.22;;;15.52;100.00
61119;BME280;51448;51.660;5.824;2023-08-06T04:50:57;100247.00;;;15.54;100.00
61119;BME280;51448;51.660;5.824;2023-08-06T04:53:25;100245.88;;;15.58;100.00
61119;BME280;51448;51.660;5.824;2023-08-06T04:55:53;100246.63;;;15.60;100.00
61119;BME280;51448;51.660;5.824;2023-08-06T04:58:20;100256.22;;;15.63;100.00
61119;BME280;51448;51.660;5.824;2023-08-06T05:00:48;100244.59;;;15.65;100.00
61119;BME280;51448;51.660;5.824;2023-08-06T05:03:15;100252.34;;;15.68;100.00
61119;BME280;51448;51.660;5.824;2023-08-06T05:05:43;100252.16;;;15.72;100.00
61119;BME280;51448;51.660;5.824;2023-08-06T05:08:15;100255.34;;;15.78;100.00
61119;BME280;51448;51.660;5.824;2023-08-06T05:10:46;100257.72;;;15.83;100.00
61119;BME280;51448;51.660;5.824;2023-08-06T05:13:15;100263.63;;;15.88;100.00
61119;BME280;51448;51.660;5.824;2023-08-06T05:15:42;100261.53;;;15.93;100.00
61119;BME280;51448;51.660;5.824;2023-08-06T05:18:12;100253.19;;;15.99;100.00
61119;BME280;51448;51.660;5.824;2023-08-06T05:20:41;100263.38;;;16.07;100.00
61119;BME280;51448;51.660;5.824;2023-08-06T05:23:09;100262.22;;;16.11;100.00
61119;BME280;51448;51.660;5.824;2023-08-06T05:25:40;100259.28;;;16.16;100.00
61119;BME280;51448;51.660;5.824;2023-08-06T05:28:07;100265.19;;;16.21;100.00
61119;BME280;51448;51.660;5.824;2023-08-06T05:30:39;100261.19;;;16.28;100.00
61119;BME280;51448;51.660;5.824;2023-08-06T05:33:07;100268.03;;;16.32;100.00
61119;BME280;51448;51.660;5.824;2023-08-06T05:35:35;100272.78;;;16.41;100.00
61119;BME280;51448;51.660;5.824;2023-08-06T05:38:03;100276.88;;;16.47;100.00
61119;BME280;51448;51.660;5.824;2023-08-06T05:40:33;100276.69;;;16.50;100.00
61119;BME280;51448;51.660;5.824;2023-08-06T05:43:01;100285.41;;;16.52;100.00
61119;BME280;51448;51.660;5.824;2023-08-06T05:45:30;100283.59;;;16.53;100.00
61119;BME280;51448;51.660;5.824;2023-08-06T05:47:58;100289.66;;;16.55;100.00
61119;BME280;51448;51.660;5.824;2023-08-06T05:50:26;100297.53;;;16.56;100.00
61119;BME280;51448;51.660;5.824;2023-08-06T05:52:53;100291.94;;;16.61;100.00
61119;BME280;51448;51.660;5.824;2023-08-06T05:55:22;100295.16;;;16.66;100.00
61119;BME280;51448;51.660;5.824;2023-08-06T05:57:49;100296.47;;;16.73;100.00
61119;BME280;51448;51.660;5.824;2023-08-06T06:00:21;100297.75;;;16.82;100.00
61119;BME280;51448;51.660;5.824;2023-08-06T06:02:49;100299.06;;;16.89;100.00
61119;BME280;51448;51.660;5.824;2023-08-06T06:05:17;100302.19;;;16.96;100.00
61119;BME280;51448;51.660;5.824;2023-08-06T06:07:44;100310.66;;;17.02;100.00
61119;BME280;51448;51.660;5.824;2023-08-06T06:10:12;100311.28;;;17.06;100.00
61119;BME280;51448;51.660;5.824;2023-08-06T06:12:40;100315.34;;;17.12;100.00
61119;BME280;51448;51.660;5.824;2023-08-06T06:15:08;100320.38;;;17.16;100.00
61119;BME280;51448;51.660;5.824;2023-08-06T06:17:36;100322.84;;;17.19;100.00
61119;BME280;51448;51.660;5.824;2023-08-06T06:20:04;100333.09;;;17.25;100.00
61119;BME280;51448;51.660;5.824;2023-08-06T06:22:32;100325.47;;;17.34;100.00
61119;BME280;51448;51.660;5.824;2023-08-06T06:25:00;100335.41;;;17.44;100.00
61119;BME280;51448;51.660;5.824;2023-08-06T06:27:27;100338.25;;;17.56;100.00
61119;BME280;51448;51.660;5.824;2023-08-06T06:29:55;100333.16;;;17.65;100.00
61119;BME280;51448;51.660;5.824;2023-08-06T06:32:23;100340.44;;;17.76;100.00
61119;BME280;51448;51.660;5.824;2023-08-06T06:34:50;100352.31;;;17.85;100.00
61119;BME280;51448;51.660;5.824;2023-08-06T06:37:18;100346.50;;;17.93;100.00
61119;BME280;51448;51.660;5.824;2023-08-06T06:39:45;100341.50;;;18.01;100.00
61119;BME280;51448;51.660;5.824;2023-08-06T06:42:13;100349.69;;;18.10;100.00
61119;BME280;51448;51.660;5.824;2023-08-06T06:44:46;100348.13;;;18.21;100.00
61119;BME280;51448;51.660;5.824;2023-08-06T06:47:13;100354.75;;;18.28;100.00
61119;BME280;51448;51.660;5.824;2023-08-06T06:49:41;100354.34;;;18.34;100.00
61119;BME280;51448;51.660;5.824;2023-08-06T06:52:09;100354.88;;;18.39;100.00
61119;BME280;51448;51.660;5.824;2023-08-06T06:54:36;100352.84;;;18.43;100.00
61119;BME280;51448;51.660;5.824;2023-08-06T06:57:04;100363.09;;;18.49;100.00
61119;BME280;51448;51.660;5.824;2023-08-06T06:59:33;100357.66;;;18.50;100.00
61119;BME280;51448;51.660;5.824;2023-08-06T07:02:00;100366.81;;;18.46;100.00
61119;BME280;51448;51.660;5.824;2023-08-06T07:04:28;100365.41;;;18.41;100.00
61119;BME280;51448;51.660;5.824;2023-08-06T07:06:55;100362.53;;;18.31;100.00
61119;BME280;51448;51.660;5.824;2023-08-06T07:09:24;100364.09;;;18.21;100.00
61119;BME280;51448;51.660;5.824;2023-08-06T07:11:52;100367.72;;;18.07;100.00
61119;BME280;51448;51.660;5.824;2023-08-06T07:14:20;100377.44;;;17.94;100.00
61119;BME280;51448;51.660;5.824;2023-08-06T07:16:48;100373.75;;;17.82;100.00
61119;BME280;51448;51.660;5.824;2023-08-06T07:19:16;100382.44;;;17.71;100.00
61119;BME280;51448;51.660;5.824;2023-08-06T07:21:43;100379.31;;;17.64;100.00
61119;BME280;51448;51.660;5.824;2023-08-06T07:24:11;100377.91;;;17.59;100.00
61119;BME280;51448;51.660;5.824;2023-08-06T07:26:38;100377.25;;;17.55;100.00
61119;BME280;51448;51.660;5.824;2023-08-06T07:29:06;100384.47;;;17.53;100.00
61119;BME280;51448;51.660;5.824;2023-08-06T07:31:35;100381.81;;;17.53;100.00
61119;BME280;51448;51.660;5.824;2023-08-06T07:34:03;100388.63;;;17.57;100.00
61119;BME280;51448;51.660;5.824;2023-08-06T07:36:30;100386.72;;;17.59;100.00
61119;BME280;51448;51.660;5.824;2023-08-06T07:39:00;100379.41;;;17.63;100.00
61119;BME280;51448;51.660;5.824;2023-08-06T07:41:27;100389.00;;;17.65;100.00
61119;BME280;51448;51.660;5.824;2023-08-06T07:43:55;100391.66;;;17.65;100.00
61119;BME280;51448;51.660;5.824;2023-08-06T07:46:23;100386.25;;;17.67;100.00
61119;BME280;51448;51.660;5.824;2023-08-06T07:48:50;100398.59;;;17.68;100.00
61119;BME280;51448;51.660;5.824;2023-08-06T07:51:18;100399.44;;;17.68;100.00
61119;BME280;51448;51.660;5.824;2023-08-06T07:53:46;100393.06;;;17.71;100.00
61119;BME280;51448;51.660;5.824;2023-08-06T07:56:14;100392.88;;;17.74;100.00
61119;BME280;51448;51.660;5.824;2023-08-06T07:58:41;100393.53;;;17.78;100.00
61119;BME280;51448;51.660;5.824;2023-08-06T08:01:09;100397.69;;;17.82;100.00
61119;BME280;51448;51.660;5.824;2023-08-06T08:03:36;100394.97;;;17.83;100.00
61119;BME280;51448;51.660;5.824;2023-08-06T08:06:04;100403.00;;;17.82;100.00
61119;BME280;51448;51.660;5.824;2023-08-06T08:08:32;100396.19;;;17.78;100.00
61119;BME280;51448;51.660;5.824;2023-08-06T08:10:59;100406.47;;;17.69;100.00
61119;BME280;51448;51.660;5.824;2023-08-06T08:13:28;100400.16;;;17.58;100.00
61119;BME280;51448;51.660;5.824;2023-08-06T08:15:58;100402.94;;;17.42;100.00
61119;BME280;51448;51.660;5.824;2023-08-06T08:18:26;100401.97;;;17.28;100.00
61119;BME280;51448;51.660;5.824;2023-08-06T08:20:56;100408.81;;;17.18;100.00
61119;BME280;51448;51.660;5.824;2023-08-06T08:23:24;100415.66;;;17.08;100.00
61119;BME280;51448;51.660;5.824;2023-08-06T08:25:51;100411.59;;;17.02;100.00
61119;BME280;51448;51.660;5.824;2023-08-06T08:28:19;100414.50;;;16.98;100.00
61119;BME280;51448;51.660;5.824;2023-08-06T08:30:47;100410.25;;;16.95;100.00
61119;BME280;51448;51.660;5.824;2023-08-06T08:33:15;100412.22;;;16.92;100.00
61119;BME280;51448;51.660;5.824;2023-08-06T08:35:42;100427.41;;;16.89;100.00
61119;BME280;51448;51.660;5.824;2023-08-06T08:38:10;100423.16;;;16.87;100.00
61119;BME280;51448;51.660;5.824;2023-08-06T08:40:45;100428.75;;;16.82;100.00
61119;BME280;51448;51.660;5.824;2023-08-06T08:43:15;100431.75;;;16.76;100.00
61119;BME280;51448;51.660;5.824;2023-08-06T08:45:43;100440.06;;;16.70;100.00
61119;BME280;51448;51.660;5.824;2023-08-06T08:48:19;100447.63;;;16.62;100.00
61119;BME280;51448;51.660;5.824;2023-08-06T08:50:48;100444.31;;;16.58;100.00
61119;BME280;51448;51.660;5.824;2023-08-06T08:53:17;100450.66;;;16.56;100.00
61119;BME280;51448;51.660;5.824;2023-08-06T08:55:48;100460.50;;;16.54;100.00
61119;BME280;51448;51.660;5.824;2023-08-06T08:58:16;100459.25;;;16.45;100.00
61119;BME280;51448;51.660;5.824;2023-08-06T09:00:46;100463.28;;;16.36;100.00
61119;BME280;51448;51.660;5.824;2023-08-06T09:03:16;100471.09;;;16.23;100.00
61119;BME280;51448;51.660;5.824;2023-08-06T09:05:45;100464.88;;;16.08;100.00
61119;BME280;51448;51.660;5.824;2023-08-06T09:08:23;100474.66;;;15.92;100.00
61119;BME280;51448;51.660;5.824;2023-08-06T09:10:58;100481.06;;;15.72;100.00
61119;BME280;51448;51.660;5.824;2023-08-06T09:13:29;100476.66;;;15.55;100.00
61119;BME280;51448;51.660;5.824;2023-08-06T09:15:56;100482.69;;;15.41;100.00
61119;BME280;51448;51.660;5.824;2023-08-06T09:18:27;100483.28;;;15.31;100.00
61119;BME280;51448;51.660;5.824;2023-08-06T09:20:57;100489.03;;;15.21;100.00
61119;BME280;51448;51.660;5.824;2023-08-06T09:23:28;100487.81;;;15.11;100.00
61119;BME280;51448;51.660;5.824;2023-08-06T09:26:32;100491.75;;;15.04;100.00
61119;BME280;51448;51.660;5.824;2023-08-06T09:29:03;100494.94;;;14.93;100.00
61119;BME280;51448;51.660;5.824;2023-08-06T09:31:53;100496.72;;;14.93;100.00
61119;BME280;51448;51.660;5.824;2023-08-06T09:34:22;100488.88;;;14.91;100.00
61119;BME280;51448;51.660;5.824;2023-08-06T09:36:52;100496.72;;;14.93;100.00
61119;BME280;51448;51.660;5.824;2023-08-06T09:39:28;100497.50;;;14.95;100.00
61119;BME280;51448;51.660;5.824;2023-08-06T09:41:58;100497.59;;;14.93;100.00
61119;BME280;51448;51.660;5.824;2023-08-06T09:44:32;100502.00;;;14.93;100.00
61119;BME280;51448;51.660;5.824;2023-08-06T09:47:02;100507.31;;;14.93;100.00
61119;BME280;51448;51.660;5.824;2023-08-06T09:52:01;100515.19;;;14.94;100.00
61119;BME280;51448;51.660;5.824;2023-08-06T09:54:29;100517.91;;;14.93;100.00
61119;BME280;51448;51.660;5.824;2023-08-06T09:56:59;100519.63;;;14.94;100.00
61119;BME280;51448;51.660;5.824;2023-08-06T09:59:27;100524.84;;;14.95;100.00
61119;BME280;51448;51.660;5.824;2023-08-06T10:01:55;100520.22;;;14.99;100.00
61119;BME280;51448;51.660;5.824;2023-08-06T10:04:24;100521.19;;;14.98;100.00
61119;BME280;51448;51.660;5.824;2023-08-06T10:06:59;100528.97;;;15.01;100.00
61119;BME280;51448;51.660;5.824;2023-08-06T10:09:27;100532.31;;;15.04;100.00
61119;BME280;51448;51.660;5.824;2023-08-06T10:11:55;100525.84;;;15.10;100.00
61119;BME280;51448;51.660;5.824;2023-08-06T10:14:31;100524.75;;;15.14;100.00
61119;BME280;51448;51.660;5.824;2023-08-06T10:17:02;100521.94;;;15.17;100.00
61119;BME280;51448;51.660;5.824;2023-08-06T10:19:30;100527.88;;;15.22;100.00
61119;BME280;51448;51.660;5.824;2023-08-06T10:22:25;100536.34;;;15.29;100.00
61119;BME280;51448;51.660;5.824;2023-08-06T10:24:58;100530.00;;;15.32;100.00
61119;BME280;51448;51.660;5.824;2023-08-06T10:27:35;100535.16;;;15.35;100.00
61119;BME280;51448;51.660;5.824;2023-08-06T10:30:23;100540.91;;;15.43;100.00
61119;BME280;51448;51.660;5.824;2023-08-06T10:33:02;100537.94;;;15.49;100.00
61119;BME280;51448;51.660;5.824;2023-08-06T10:40:50;100542.50;;;15.63;100.00
61119;BME280;51448;51.660;5.824;2023-08-06T10:43:33;100541.41;;;15.67;100.00
61119;BME280;51448;51.660;5.824;2023-08-06T10:46:04;100543.09;;;15.68;100.00
61119;BME280;51448;51.660;5.824;2023-08-06T10:48:39;100549.25;;;15.68;100.00
61119;BME280;51448;51.660;5.824;2023-08-06T10:51:10;100555.34;;;15.70;100.00
61119;BME280;51448;51.660;5.824;2023-08-06T10:53:44;100551.75;;;15.72;100.00
61119;BME280;51448;51.660;5.824;2023-08-06T10:58:47;100553.94;;;15.81;100.00
61119;BME280;51448;51.660;5.824;2023-08-06T11:01:15;100574.22;;;15.82;100.00
61119;BME280;51448;51.660;5.824;2023-08-06T11:03:46;100568.72;;;15.85;100.00
61119;BME280;51448;51.660;5.824;2023-08-06T11:06:18;100573.13;;;15.86;100.00
61119;BME280;51448;51.660;5.824;2023-08-06T11:08:51;100577.66;;;15.84;100.00
61119;BME280;51448;51.660;5.824;2023-08-06T11:11:21;100582.00;;;15.85;100.00
61119;BME280;51448;51.660;5.824;2023-08-06T11:13:51;100587.22;;;15.86;100.00
61119;BME280;51448;51.660;5.824;2023-08-06T11:16:21;100587.91;;;15.90;100.00
61119;BME280;51448;51.660;5.824;2023-08-06T11:18:53;100595.03;;;15.89;100.00
61119;BME280;51448;51.660;5.824;2023-08-06T11:21:22;100592.28;;;15.91;100.00
61119;BME280;51448;51.660;5.824;2023-08-06T11:23:52;100592.28;;;15.91;100.00
61119;BME280;51448;51.660;5.824;2023-08-06T11:26:21;100594.00;;;15.92;100.00
61119;BME280;51448;51.660;5.824;2023-08-06T11:28:51;100593.81;;;15.95;100.00
61119;BME280;51448;51.660;5.824;2023-08-06T11:31:22;100595.53;;;15.96;100.00
61119;BME280;51448;51.660;5.824;2023-08-06T11:33:54;100597.41;;;15.94;100.00
61119;BME280;51448;51.660;5.824;2023-08-06T11:36:35;100592.28;;;15.91;100.00
61119;BME280;51448;51.660;5.824;2023-08-06T11:39:07;100599.44;;;15.89;100.00
61119;BME280;51448;51.660;5.824;2023-08-06T11:41:36;100597.56;;;15.91;100.00
61119;BME280;51448;51.660;5.824;2023-08-06T11:44:10;100608.03;;;15.94;100.00
61119;BME280;51448;51.660;5.824;2023-08-06T11:49:46;100591.09;;;15.97;100.00
61119;BME280;51448;51.660;5.824;2023-08-06T11:52:21;100601.53;;;16.00;100.00
61119;BME280;51448;51.660;5.824;2023-08-06T11:55:08;100602.13;;;16.05;100.00
61119;BME280;51448;51.660;5.824;2023-08-06T11:57:44;100608.47;;;16.02;100.00
61119;BME280;51448;51.660;5.824;2023-08-06T12:00:13;100607.69;;;16.00;100.00
61119;BME280;51448;51.660;5.824;2023-08-06T12:02:43;100607.69;;;16.00;100.00
61119;BME280;51448;51.660;5.824;2023-08-06T12:05:14;100617.47;;;16.00;100.00
61119;BME280;51448;51.660;5.824;2023-08-06T12:07:53;100615.72;;;15.99;100.00
61119;BME280;51448;51.660;5.824;2023-08-06T12:10:24;100621.88;;;15.99;100.00
61119;BME280;51448;51.660;5.824;2023-08-06T12:12:54;100623.34;;;16.05;100.00
61119;BME280;51448;51.660;5.824;2023-08-06T12:15:22;100625.69;;;16.11;100.00
61119;BME280;51448;51.660;5.824;2023-08-06T12:17:51;100634.25;;;16.16;100.00
61119;BME280;51448;51.660;5.824;2023-08-06T12:20:18;100638.34;;;16.22;100.00
61119;BME280;51448;51.660;5.824;2023-08-06T12:22:46;100642.41;;;16.29;100.00
61119;BME280;51448;51.660;5.824;2023-08-06T12:25:14;100644.78;;;16.34;100.00
61119;BME280;51448;51.660;5.824;2023-08-06T12:27:43;100652.59;;;16.37;100.00
61119;BME280;51448;51.660;5.824;2023-08-06T12:30:12;100657.03;;;16.36;100.00
61119;BME280;51448;51.660;5.824;2023-08-06T12:32:40;100662.34;;;16.36;100.00
61119;BME280;51448;51.660;5.824;2023-08-06T12:35:08;100658.13;;;16.32;100.00
61119;BME280;51448;51.660;5.824;2023-08-06T12:37:36;100663.63;;;16.29;100.00
61119;BME280;51448;51.660;5.824;2023-08-06T12:40:07;100672.50;;;16.28;100.00
61119;BME280;51448;51.660;5.824;2023-08-06T12:42:55;100676.13;;;16.27;100.00
61119;BME280;51448;51.660;5.824;2023-08-06T12:45:22;100680.72;;;16.23;100.00
61119;BME280;51448;51.660;5.824;2023-08-06T12:47:50;100676.44;;;16.21;100.00
61119;BME280;51448;51.660;5.824;2023-08-06T12:50:18;100677.38;;;16.20;100.00
61119;BME280;51448;51.660;5.824;2023-08-06T12:52:45;100679.97;;;16.21;100.00
61119;BME280;51448;51.660;5.824;2023-08-06T12:55:13;100677.47;;;16.18;100.00
61119;BME280;51448;51.660;5.824;2023-08-06T12:57:40;100684.56;;;16.18;100.00
61119;BME280;51448;51.660;5.824;2023-08-06T13:00:11;100684.81;;;16.13;100.00
61119;BME280;51448;51.660;5.824;2023-08-06T13:02:39;100686.78;;;16.09;100.00
61119;BME280;51448;51.660;5.824;2023-08-06T13:05:06;100682.34;;;16.10;100.00
61119;BME280;51448;51.660;5.824;2023-08-06T13:07:34;100687.47;;;16.13;100.00
61119;BME280;51448;51.660;5.824;2023-08-06T13:10:01;100690.06;;;16.15;100.00